createdAt,value
2018-08-06T00:02:20.320Z,53.99
2018-08-06T00:04:48.417Z,53.90
2018-08-06T00:07:16.644Z,54.62
2018-08-06T00:09:44.940Z,56.18
2018-08-06T00:12:13.041Z,57.65
2018-08-06T00:14:41.198Z,58.89
2018-08-06T00:17:09.517Z,58.29
2018-08-06T00:19:37.799Z,58.60
2018-08-06T00:22:06.175Z,58.55
2018-08-06T00:24:34.295Z,58.88
2018-08-06T00:27:02.428Z,59.89
2018-08-06T00:29:31.549Z,59.20
2018-08-06T00:31:59.688Z,59.56
2018-08-06T00:34:27.815Z,59.05
2018-08-06T00:36:56.031Z,59.18
2018-08-06T00:39:24.151Z,59.07
2018-08-06T00:41:52.246Z,58.31
2018-08-06T00:44:20.348Z,59.85
2018-08-06T00:46:48.454Z,57.92
2018-08-06T00:49:16.606Z,57.54
2018-08-06T00:51:44.691Z,58.49
2018-08-06T00:54:12.801Z,57.53
2018-08-06T00:56:40.905Z,57.42
2018-08-06T00:59:09.029Z,58.44
2018-08-06T01:01:37.499Z,58.65
2018-08-06T01:04:05.725Z,58.66
2018-08-06T01:06:33.814Z,59.48
2018-08-06T01:09:01.927Z,57.80
2018-08-06T01:11:30.021Z,59.09
2018-08-06T01:13:58.108Z,58.45
2018-08-06T01:16:26.224Z,58.74
2018-08-06T01:18:54.911Z,59.45
2018-08-06T01:21:23.008Z,60.31
2018-08-06T01:23:51.091Z,60.92
2018-08-06T01:26:19.206Z,60.70
2018-08-06T01:28:47.363Z,61.46
2018-08-06T01:34:08.504Z,61.07
2018-08-06T01:36:36.851Z,61.93
2018-08-06T01:39:08.066Z,61.68
2018-08-06T01:41:36.314Z,61.99
2018-08-06T01:44:04.456Z,62.74
2018-08-06T01:46:32.627Z,61.01
2018-08-06T01:49:00.719Z,61.65
2018-08-06T01:51:28.811Z,62.80
2018-08-06T01:53:56.948Z,64.17
2018-08-06T01:56:25.035Z,62.40
2018-08-06T01:58:53.115Z,62.28
2018-08-06T02:01:21.245Z,63.07
2018-08-06T02:03:49.338Z,62.43
2018-08-06T02:06:17.450Z,62.89
2018-08-06T02:08:45.578Z,63.15
2018-08-06T02:11:15.424Z,64.37
2018-08-06T02:16:45.631Z,65.66
2018-08-06T02:19:33.042Z,65.69
2018-08-06T02:22:20.539Z,65.47
2018-08-06T02:24:56.160Z,66.21
2018-08-06T02:27:31.409Z,66.07
2018-08-06T02:32:58.373Z,66.22
2018-08-06T02:35:33.379Z,66.84
2018-08-06T02:38:08.609Z,66.55
2018-08-06T02:40:49.413Z,67.35
2018-08-06T02:43:26.843Z,67.47
2018-08-06T02:46:00.537Z,67.83
2018-08-06T02:48:35.985Z,67.93
2018-08-06T02:51:08.866Z,67.44
2018-08-06T02:56:38.373Z,67.11
2018-08-06T02:59:10.844Z,67.72
2018-08-06T03:01:48.484Z,67.94
2018-08-06T03:04:30.882Z,68.50
2018-08-06T03:07:02.895Z,66.88
2018-08-06T03:09:37.158Z,66.76
2018-08-06T03:12:10.828Z,66.74
2018-08-06T03:14:44.242Z,66.76
2018-08-06T03:17:31.268Z,65.16
2018-08-06T03:20:04.215Z,64.65
2018-08-06T03:22:40.607Z,64.72
2018-08-06T03:25:18.929Z,63.42
2018-08-06T03:30:54.981Z,64.57
2018-08-06T03:33:39.669Z,66.72
2018-08-06T03:36:31.080Z,68.33
2018-08-06T03:42:05.504Z,68.87
2018-08-06T03:44:37.653Z,67.21
2018-08-06T03:47:09.262Z,67.73
2018-08-06T03:49:40.564Z,69.73
2018-08-06T03:52:14.104Z,68.02
2018-08-06T03:55:19.860Z,67.66
2018-08-06T03:57:52.084Z,69.04
2018-08-06T04:00:24.074Z,66.81
2018-08-06T04:03:11.135Z,68.11
2018-08-06T04:05:43.193Z,68.29
2018-08-06T04:08:18.630Z,67.97
2018-08-06T04:10:56.063Z,66.68
2018-08-06T04:13:49.952Z,66.92
2018-08-06T04:19:24.114Z,67.48
2018-08-06T04:21:56.883Z,68.04
2018-08-06T04:24:35.174Z,66.67
2018-08-06T04:27:07.468Z,68.93
2018-08-06T04:29:39.677Z,68.66
2018-08-06T04:44:25.175Z,67.69
2018-08-06T04:46:57.492Z,69.75
2018-08-06T04:49:29.517Z,68.62
2018-08-06T04:52:04.262Z,68.65
2018-08-06T04:54:36.326Z,67.83
2018-08-06T04:57:09.135Z,68.35
2018-08-06T05:00:00.554Z,66.32
2018-08-06T05:02:34.277Z,66.55
2018-08-06T05:05:16.910Z,65.94
2018-08-06T05:07:50.186Z,65.21
2018-08-06T05:10:22.613Z,65.29
2018-08-06T05:12:54.073Z,64.14
2018-08-06T05:15:26.949Z,65.31
2018-08-06T05:18:10.072Z,66.13
2018-08-06T05:20:43.966Z,63.29
2018-08-06T05:23:16.088Z,63.92
2018-08-06T05:28:34.193Z,63.65
2018-08-06T05:31:07.881Z,62.73
2018-08-06T05:33:38.974Z,62.71
2018-08-06T05:36:21.734Z,62.48
2018-08-06T05:39:00.471Z,62.83
2018-08-06T05:41:33.734Z,62.25
2018-08-06T05:47:04.530Z,60.50
2018-08-06T05:49:37.406Z,54.29
2018-08-06T05:52:10.645Z,48.76
2018-08-06T05:54:43.569Z,45.25
2018-08-06T05:57:17.118Z,41.50
2018-08-06T06:00:14.506Z,39.47
2018-08-06T06:02:47.187Z,39.57
2018-08-06T06:05:19.384Z,37.28
2018-08-06T06:07:51.726Z,37.01
2018-08-06T06:13:39.575Z,37.69
2018-08-06T06:16:12.595Z,37.76
2018-08-06T06:21:26.155Z,41.67
2018-08-06T06:23:59.554Z,41.91
2018-08-06T06:26:41.116Z,42.69
2018-08-06T06:29:13.765Z,41.01
2018-08-06T06:31:47.592Z,42.56
2018-08-06T06:34:20.887Z,42.90
2018-08-06T06:36:53.420Z,48.09
2018-08-06T06:39:36.354Z,50.51
2018-08-06T06:42:08.833Z,51.54
2018-08-06T06:47:39.447Z,53.47
2018-08-06T06:50:11.587Z,53.21
2018-08-06T06:52:58.773Z,53.00
2018-08-06T06:55:31.182Z,53.60
2018-08-06T06:58:03.565Z,53.58
2018-08-06T07:03:42.679Z,51.90
2018-08-06T07:06:15.289Z,51.88
2018-08-06T07:11:48.795Z,52.67
2018-08-06T07:14:21.315Z,52.20
2018-08-06T07:17:08.333Z,53.18
2018-08-06T07:19:40.327Z,53.26
2018-08-06T07:22:22.566Z,52.19
2018-08-06T07:25:11.269Z,52.20
2018-08-06T07:27:44.565Z,52.00
2018-08-06T07:30:19.671Z,53.33
2018-08-06T07:32:51.810Z,52.71
2018-08-06T07:35:23.895Z,52.96
2018-08-06T07:37:55.995Z,51.03
2018-08-06T07:40:27.455Z,51.02
2018-08-06T07:45:44.176Z,50.76
2018-08-06T07:51:08.888Z,51.13
2018-08-06T07:53:41.581Z,50.98
2018-08-06T07:56:13.641Z,49.73
2018-08-06T07:58:51.741Z,49.74
2018-08-06T08:01:24.367Z,48.68
2018-08-06T08:03:56.885Z,49.02
2018-08-06T08:06:29.651Z,49.14
2018-08-06T08:09:01.741Z,49.36
2018-08-06T08:14:14.040Z,49.12
2018-08-06T08:16:47.329Z,49.32
2018-08-06T08:19:21.264Z,48.50
2018-08-06T08:21:54.118Z,48.80
2018-08-06T08:24:26.275Z,49.24
2018-08-06T08:26:57.126Z,49.61
2018-08-06T08:29:29.435Z,49.66
2018-08-06T08:32:01.555Z,49.59
2018-08-06T08:34:32.981Z,48.46
2018-08-06T08:37:05.333Z,48.50
2018-08-06T08:39:37.203Z,47.52
2018-08-06T08:42:09.621Z,47.91
2018-08-06T08:44:41.938Z,48.46
2018-08-06T08:47:14.713Z,48.63
2018-08-06T08:49:47.149Z,47.74
2018-08-06T08:52:24.921Z,47.06
2018-08-06T08:54:58.416Z,46.81
2018-08-06T08:57:30.139Z,46.49
2018-08-06T09:00:02.635Z,46.00
2018-08-06T09:02:33.639Z,46.24
2018-08-06T09:05:07.066Z,45.41
2018-08-06T09:07:39.443Z,45.07
2018-08-06T09:10:14.978Z,45.39
2018-08-06T09:12:47.330Z,45.17
2018-08-06T09:15:22.176Z,45.82
2018-08-06T09:17:55.329Z,45.86
2018-08-06T09:20:27.836Z,44.75
2018-08-06T09:26:21.860Z,43.85
2018-08-06T09:28:54.373Z,43.64
2018-08-06T09:31:26.521Z,43.36
2018-08-06T09:37:16.034Z,43.31
2018-08-06T09:39:49.508Z,43.71
2018-08-06T09:42:22.137Z,42.96
2018-08-06T09:44:54.935Z,42.55
2018-08-06T09:47:26.896Z,41.76
2018-08-06T09:49:59.708Z,42.09
2018-08-06T09:52:31.541Z,41.70
2018-08-06T09:55:03.619Z,42.75
2018-08-06T09:57:35.782Z,41.51
2018-08-06T10:01:16.524Z,42.52
2018-08-06T10:04:00.623Z,41.53
2018-08-06T10:06:28.839Z,41.92
2018-08-06T10:08:56.868Z,40.30
2018-08-06T10:11:24.978Z,40.66
2018-08-06T10:13:53.076Z,41.73
2018-08-06T10:16:21.459Z,40.16
2018-08-06T10:18:49.627Z,40.55
2018-08-06T10:21:17.671Z,41.10
2018-08-06T10:23:45.779Z,39.61
2018-08-06T10:26:13.867Z,39.85
2018-08-06T10:28:41.987Z,38.66
2018-08-06T10:31:10.067Z,39.30
2018-08-06T10:33:38.474Z,38.65
2018-08-06T10:36:06.555Z,39.47
2018-08-06T10:38:34.635Z,38.10
2018-08-06T10:41:02.733Z,38.60
2018-08-06T10:43:30.834Z,37.95
2018-08-06T10:45:58.912Z,38.04
2018-08-06T10:48:27.106Z,39.24
2018-08-06T10:50:55.123Z,37.44
2018-08-06T10:53:24.055Z,38.11
2018-08-06T10:55:52.147Z,37.59
2018-08-06T10:58:20.228Z,37.61
2018-08-06T11:00:48.328Z,38.26
2018-08-06T11:03:16.433Z,37.94
2018-08-06T11:05:44.542Z,38.92
2018-08-06T11:08:12.635Z,37.46
2018-08-06T11:10:40.745Z,36.40
2018-08-06T11:13:08.904Z,35.55
2018-08-06T11:15:37.006Z,34.47
2018-08-06T11:18:05.281Z,35.18
2018-08-06T11:20:33.424Z,35.85
2018-08-06T11:23:01.480Z,34.72
2018-08-06T11:25:29.572Z,32.81
2018-08-06T11:27:57.688Z,33.26
2018-08-06T11:30:26.695Z,33.15
2018-08-06T11:32:55.057Z,32.04
2018-08-06T11:35:23.139Z,32.18
2018-08-06T11:37:51.763Z,32.84
2018-08-06T11:40:19.887Z,32.43
2018-08-06T11:42:48.566Z,32.92
2018-08-06T11:45:18.906Z,32.73
2018-08-06T11:47:47.039Z,32.06
2018-08-06T11:50:15.148Z,31.99
2018-08-06T11:52:43.251Z,31.98
2018-08-06T11:55:11.396Z,31.84
2018-08-06T11:57:39.531Z,32.99
2018-08-06T12:00:11.724Z,32.13
2018-08-06T12:02:39.810Z,31.74
2018-08-06T12:05:07.948Z,32.41
2018-08-06T12:07:36.236Z,31.49
2018-08-06T12:10:06.286Z,32.10
2018-08-06T12:12:34.355Z,31.65
2018-08-06T12:15:02.446Z,34.34
2018-08-06T12:17:30.548Z,31.45
2018-08-06T12:19:58.632Z,32.45
2018-08-06T12:22:26.723Z,31.54
2018-08-06T12:24:54.813Z,31.85
2018-08-06T12:27:22.980Z,31.27
2018-08-06T12:29:51.009Z,31.42
2018-08-06T12:32:19.108Z,31.28
2018-08-06T12:34:47.197Z,30.92
2018-08-06T12:37:15.311Z,30.64
2018-08-06T12:39:43.433Z,31.67
2018-08-06T12:42:11.539Z,30.77
2018-08-06T12:44:39.627Z,31.78
2018-08-06T12:47:07.737Z,31.53
2018-08-06T12:49:35.827Z,31.39
2018-08-06T12:52:03.920Z,30.93
2018-08-06T12:54:32.019Z,30.72
2018-08-06T12:57:00.308Z,30.64
2018-08-06T12:59:28.360Z,30.31
2018-08-06T13:01:56.481Z,30.64
2018-08-06T13:04:24.563Z,32.03
2018-08-06T13:06:52.729Z,32.12
2018-08-06T13:09:20.811Z,31.44
2018-08-06T13:11:48.907Z,30.26
2018-08-06T13:14:16.995Z,29.92
2018-08-06T13:16:45.115Z,29.61
2018-08-06T13:19:13.221Z,30.93
2018-08-06T13:21:41.363Z,29.64
2018-08-06T13:24:09.469Z,29.13
2018-08-06T13:26:37.572Z,29.67
2018-08-06T13:29:06.135Z,30.64
2018-08-06T13:31:34.206Z,29.25
2018-08-06T13:34:02.340Z,29.37
2018-08-06T13:36:30.459Z,29.91
2018-08-06T13:38:58.551Z,30.18
2018-08-06T13:41:26.647Z,29.82
2018-08-06T13:43:54.734Z,30.37
2018-08-06T13:46:22.822Z,30.40
2018-08-06T13:48:50.934Z,29.86
2018-08-06T13:51:19.018Z,30.88
2018-08-06T13:53:47.116Z,29.50
2018-08-06T13:56:15.199Z,28.17
2018-08-06T13:58:44.137Z,27.66
2018-08-06T14:01:12.232Z,28.87
2018-08-06T14:03:40.347Z,28.54
2018-08-06T14:06:08.687Z,28.51
2018-08-06T14:08:36.777Z,31.84
2018-08-06T14:11:04.867Z,28.72
2018-08-06T14:13:32.964Z,29.53
2018-08-06T14:16:01.044Z,28.62
2018-08-06T14:18:29.148Z,30.29
2018-08-06T14:20:57.226Z,28.60
2018-08-06T14:23:25.332Z,29.41
2018-08-06T14:25:53.461Z,29.15
2018-08-06T14:28:21.560Z,29.56
2018-08-06T14:30:49.659Z,29.43
2018-08-06T14:33:18.656Z,29.31
2018-08-06T14:35:46.759Z,28.21
2018-08-06T14:38:14.888Z,28.91
2018-08-06T14:40:42.965Z,28.22
2018-08-06T14:43:11.076Z,28.64
2018-08-06T14:45:39.163Z,28.54
2018-08-06T14:48:07.321Z,28.57
2018-08-06T14:50:36.005Z,28.56
2018-08-06T14:53:04.125Z,28.16
2018-08-06T14:55:32.504Z,28.30
2018-08-06T14:58:00.589Z,27.80
2018-08-06T15:00:28.664Z,27.84
2018-08-06T15:02:56.775Z,28.06
2018-08-06T15:05:24.892Z,29.32
2018-08-06T15:07:52.984Z,27.76
2018-08-06T15:10:21.081Z,27.50
2018-08-06T15:12:49.195Z,27.97
2018-08-06T15:15:18.168Z,29.03
2018-08-06T15:17:46.643Z,28.57
2018-08-06T15:20:16.043Z,28.88
2018-08-06T15:22:44.439Z,27.22
2018-08-06T15:25:15.170Z,28.84
2018-08-06T15:27:43.523Z,27.44
2018-08-06T15:30:11.813Z,29.50
2018-08-06T15:32:40.572Z,27.05
2018-08-06T15:35:12.560Z,27.32
2018-08-06T15:37:41.338Z,27.68
2018-08-06T15:40:15.644Z,27.56
2018-08-06T15:42:43.777Z,27.36
2018-08-06T15:45:12.645Z,28.54
2018-08-06T15:47:42.139Z,27.78
2018-08-06T15:50:15.647Z,27.56
2018-08-06T15:52:43.836Z,28.00
2018-08-06T15:55:11.948Z,27.78
2018-08-06T15:57:40.034Z,28.91
2018-08-06T16:00:14.896Z,28.51
2018-08-06T16:02:43.279Z,28.68
2018-08-06T16:05:11.713Z,27.68
2018-08-06T16:07:40.311Z,28.44
2018-08-06T16:10:10.042Z,27.23
2018-08-06T16:12:38.233Z,27.87
2018-08-06T16:15:08.160Z,28.08
2018-08-06T16:17:36.375Z,27.67
2018-08-06T16:20:06.547Z,28.30
2018-08-06T16:22:34.633Z,28.42
2018-08-06T16:25:03.094Z,27.53
2018-08-06T16:27:31.147Z,26.94
2018-08-06T16:29:59.257Z,27.47
2018-08-06T16:32:27.359Z,29.09
2018-08-06T16:34:55.454Z,27.69
2018-08-06T16:37:23.548Z,28.35
2018-08-06T16:39:52.444Z,27.50
2018-08-06T16:42:20.524Z,27.43
2018-08-06T16:44:48.684Z,27.51
2018-08-06T16:47:16.774Z,28.04
2018-08-06T16:49:44.899Z,27.95
2018-08-06T16:52:12.998Z,27.96
2018-08-06T16:54:41.087Z,28.26
2018-08-06T16:57:09.467Z,27.46
2018-08-06T16:59:37.555Z,27.28
2018-08-06T17:02:05.668Z,28.36
2018-08-06T17:04:33.789Z,28.12
2018-08-06T17:07:01.921Z,26.96
2018-08-06T17:09:30.008Z,27.60
2018-08-06T17:12:02.659Z,28.78
2018-08-06T17:14:35.818Z,27.56
2018-08-06T17:17:08.143Z,28.67
2018-08-06T17:19:40.714Z,28.32
2018-08-06T17:22:17.912Z,28.48
2018-08-06T17:24:50.713Z,29.22
2018-08-06T17:27:34.039Z,28.88
2018-08-06T17:30:07.813Z,28.37
2018-08-06T17:32:40.371Z,28.11
2018-08-06T17:35:15.489Z,29.19
2018-08-06T17:37:48.399Z,29.19
2018-08-06T17:40:21.790Z,31.49
2018-08-06T17:42:53.349Z,29.14
2018-08-06T17:45:25.768Z,30.46
2018-08-06T17:47:57.963Z,30.09
2018-08-06T17:50:31.942Z,30.48
2018-08-06T17:53:04.197Z,30.97
2018-08-06T17:55:36.325Z,30.93
2018-08-06T17:58:09.109Z,31.90
2018-08-06T18:01:02.091Z,31.06
2018-08-06T18:03:33.818Z,31.65
2018-08-06T18:06:05.781Z,31.43
2018-08-06T18:08:53.388Z,32.28
2018-08-06T18:11:27.376Z,32.76
2018-08-06T18:14:08.938Z,32.58
2018-08-06T18:16:41.693Z,32.46
2018-08-06T18:19:13.551Z,34.65
2018-08-06T18:21:44.229Z,34.06
2018-08-06T18:24:16.640Z,33.84
2018-08-06T18:26:48.971Z,33.49
2018-08-06T18:29:20.823Z,34.10
2018-08-06T18:31:52.937Z,34.17
2018-08-06T18:34:41.481Z,34.52
2018-08-06T18:37:14.521Z,33.01
2018-08-06T18:39:46.753Z,33.76
2018-08-06T18:42:19.087Z,33.37
2018-08-06T18:44:51.416Z,33.08
2018-08-06T18:47:23.657Z,33.26
2018-08-06T18:49:56.058Z,33.82
2018-08-06T18:52:24.180Z,34.36
2018-08-06T18:54:52.283Z,34.33
2018-08-06T18:57:20.445Z,34.84
2018-08-06T18:59:48.533Z,34.94
2018-08-06T19:02:16.648Z,35.09
2018-08-06T19:04:45.628Z,36.22
2018-08-06T19:07:13.739Z,35.54
2018-08-06T19:09:42.096Z,36.43
2018-08-06T19:14:21.740Z,35.30
2018-08-06T19:16:51.132Z,35.19
2018-08-06T19:19:22.142Z,35.42
2018-08-06T19:21:51.163Z,36.49
2018-08-06T19:24:24.663Z,35.70
2018-08-06T19:26:52.768Z,37.02
2018-08-06T19:29:20.956Z,38.98
2018-08-06T19:31:49.058Z,38.69
2018-08-06T19:34:17.205Z,39.30
2018-08-06T19:36:50.602Z,40.42
2018-08-06T19:39:18.952Z,39.95
2018-08-06T19:41:47.196Z,40.02
2018-08-06T19:44:15.299Z,40.11
2018-08-06T19:46:44.356Z,39.08
2018-08-06T19:49:17.978Z,41.07
2018-08-06T19:51:46.083Z,42.87
2018-08-06T19:54:14.506Z,43.15
2018-08-06T19:56:42.784Z,43.27
2018-08-06T19:59:11.392Z,43.12
2018-08-06T20:01:39.441Z,44.89
2018-08-06T20:04:08.164Z,44.67
2018-08-06T20:06:36.335Z,45.61
2018-08-06T20:09:08.106Z,46.39
2018-08-06T20:11:36.471Z,45.54
2018-08-06T20:14:06.951Z,45.88
2018-08-06T20:16:35.047Z,46.94
2018-08-06T20:19:03.564Z,45.73
2018-08-06T20:21:31.655Z,45.74
2018-08-06T20:23:59.751Z,46.83
2018-08-06T20:26:27.842Z,47.18
2018-08-06T20:28:55.955Z,47.47
2018-08-06T20:31:24.062Z,47.68
2018-08-06T20:33:52.172Z,48.11
2018-08-06T20:36:20.281Z,47.54
2018-08-06T20:38:48.379Z,48.13
2018-08-06T20:41:16.755Z,47.58
2018-08-06T20:43:46.203Z,47.74
2018-08-06T20:46:14.297Z,47.36
2018-08-06T20:48:42.433Z,47.54
2018-08-06T20:51:17.446Z,49.19
2018-08-06T20:53:46.204Z,49.79
2018-08-06T20:56:14.288Z,48.91
2018-08-06T20:58:42.626Z,48.80
2018-08-06T21:01:10.803Z,49.51
2018-08-06T21:03:38.905Z,50.15
2018-08-06T21:06:06.987Z,49.44
2018-08-06T21:08:35.113Z,49.36
2018-08-06T21:11:03.210Z,50.26
2018-08-06T21:13:31.302Z,49.91
2018-08-06T21:15:59.390Z,50.32
2018-08-06T21:18:27.775Z,50.11
2018-08-06T21:20:55.871Z,50.17
2018-08-06T21:23:23.984Z,50.76
2018-08-06T21:25:52.063Z,49.70
2018-08-06T21:28:20.192Z,50.04
2018-08-06T21:30:48.274Z,49.06
2018-08-06T21:33:17.311Z,48.23
2018-08-06T21:35:45.418Z,48.30
2018-08-06T21:38:13.502Z,48.51
2018-08-06T21:40:41.587Z,50.97
2018-08-06T21:43:09.695Z,50.33
2018-08-06T21:45:37.856Z,50.07
2018-08-06T21:48:05.917Z,50.28
2018-08-06T22:02:39.479Z,47.78
2018-08-06T22:05:07.965Z,48.60
2018-08-06T22:07:36.059Z,48.45
2018-08-06T22:10:04.563Z,48.98
2018-08-06T22:12:32.974Z,49.63
2018-08-06T22:15:01.077Z,50.54
2018-08-06T22:17:29.175Z,50.54
2018-08-06T22:19:57.276Z,52.39
2018-08-06T22:22:25.377Z,51.80
2018-08-06T22:24:53.520Z,52.10
2018-08-06T22:27:21.607Z,51.58
2018-08-06T22:29:49.752Z,51.89
2018-08-06T22:32:17.842Z,52.50
2018-08-06T22:34:45.961Z,51.83
2018-08-06T22:37:14.043Z,52.17
2018-08-06T22:39:42.156Z,53.17
2018-08-06T22:42:10.253Z,54.08
2018-08-06T22:44:38.365Z,52.87
2018-08-06T22:47:06.625Z,52.82
2018-08-06T22:49:34.725Z,53.57
2018-08-06T22:52:02.804Z,53.72
2018-08-06T22:54:30.898Z,53.84
2018-08-06T22:56:58.992Z,53.88
2018-08-06T22:59:27.086Z,53.97
2018-08-06T23:01:55.217Z,54.84
2018-08-06T23:04:23.291Z,55.14
2018-08-06T23:06:51.375Z,55.09
2018-08-06T23:09:20.241Z,56.12
2018-08-06T23:11:48.333Z,56.36
2018-08-06T23:14:16.449Z,56.35
2018-08-06T23:16:44.577Z,56.72
2018-08-06T23:19:12.661Z,57.33
2018-08-06T23:21:40.775Z,57.96
2018-08-06T23:24:08.879Z,58.08
2018-08-06T23:26:37.300Z,58.46
2018-08-06T23:29:05.386Z,58.47
2018-08-06T23:31:33.480Z,58.04
2018-08-06T23:34:01.582Z,58.40
2018-08-06T23:36:30.619Z,58.24
2018-08-06T23:38:58.723Z,59.67
2018-08-06T23:41:26.834Z,59.58
2018-08-06T23:43:54.943Z,59.97
2018-08-06T23:46:23.103Z,59.06
2018-08-06T23:48:51.769Z,58.71
2018-08-06T23:51:19.868Z,59.35
2018-08-06T23:53:47.956Z,59.01
2018-08-06T23:56:16.796Z,59.38
2018-08-06T23:58:44.904Z,60.11
